createdAt,value
2023-01-15T00:04:00.271Z,6.80
2023-01-15T00:09:10.173Z,6.90
2023-01-15T00:14:18.847Z,6.90
2023-01-15T00:19:26.970Z,7.00
2023-01-15T00:24:51.644Z,7.00
2023-01-15T00:30:01.659Z,7.00
2023-01-15T00:35:13.083Z,7.10
2023-01-15T00:40:22.966Z,7.10
2023-01-15T00:45:35.731Z,7.10
2023-01-15T00:50:52.167Z,7.20
2023-01-15T00:56:05.491Z,7.20
2023-01-15T01:01:15.127Z,7.20
2023-01-15T01:06:24.529Z,7.30
2023-01-15T01:11:33.632Z,7.20
2023-01-15T01:16:42.185Z,7.20
2023-01-15T01:21:49.169Z,7.30
2023-01-15T01:26:54.905Z,7.40
2023-01-15T01:32:00.632Z,7.40
2023-01-15T01:37:06.636Z,7.50
2023-01-15T01:42:16.130Z,7.60
2023-01-15T01:47:25.071Z,7.60
2023-01-15T01:52:35.859Z,7.70
2023-01-15T02:03:35.435Z,7.70
2023-01-15T02:08:42.074Z,7.70
2023-01-15T02:14:02.150Z,7.70
2023-01-15T02:19:38.905Z,7.70
2023-01-15T02:25:00.667Z,7.60
2023-01-15T02:30:24.674Z,7.60
2023-01-15T02:35:45.970Z,7.70
2023-01-15T02:40:54.541Z,7.70
2023-01-15T02:46:03.059Z,7.90
2023-01-15T02:51:17.878Z,7.90
2023-01-15T02:56:26.471Z,8.00
2023-01-15T03:01:34.851Z,8.00
2023-01-15T03:13:03.967Z,8.00
2023-01-15T03:18:11.982Z,8.10
2023-01-15T03:23:23.761Z,8.10
2023-01-15T03:28:33.299Z,8.20
2023-01-15T03:33:40.591Z,8.20
2023-01-15T03:38:48.960Z,8.20
2023-01-15T03:44:05.990Z,8.20
2023-01-15T03:49:23.352Z,8.20
2023-01-15T03:54:40.958Z,8.20
2023-01-15T03:59:49.205Z,8.20
2023-01-15T04:04:57.007Z,8.20
2023-01-15T04:10:02.563Z,8.20
2023-01-15T04:15:08.592Z,8.30
2023-01-15T04:20:22.677Z,8.30
2023-01-15T04:25:28.079Z,8.30
2023-01-15T04:30:39.104Z,8.30
2023-01-15T04:35:47.847Z,8.30
2023-01-15T04:41:22.517Z,8.40
2023-01-15T04:46:29.272Z,8.40
2023-01-15T04:51:36.665Z,8.30
2023-01-15T04:56:44.977Z,8.40
2023-01-15T05:02:03.135Z,8.30
2023-01-15T05:07:04.423Z,8.30
2023-01-15T05:12:10.571Z,8.30
2023-01-15T05:17:17.476Z,8.30
2023-01-15T05:22:23.327Z,8.20
2023-01-15T05:27:28.496Z,8.20
2023-01-15T05:32:33.744Z,8.20
2023-01-15T05:37:39.066Z,8.20
2023-01-15T05:42:45.551Z,8.10
2023-01-15T05:47:52.459Z,8.10
2023-01-15T05:52:58.407Z,8.20
2023-01-15T05:58:03.587Z,8.20
2023-01-15T06:03:20.567Z,8.20
2023-01-15T06:08:29.178Z,8.00
2023-01-15T06:13:50.949Z,7.90
2023-01-15T06:19:08.816Z,7.70
2023-01-15T06:24:19.769Z,7.60
2023-01-15T06:29:27.793Z,7.50
2023-01-15T06:34:35.253Z,7.40
2023-01-15T06:39:42.522Z,7.40
2023-01-15T06:45:07.221Z,7.30
2023-01-15T06:50:24.934Z,7.30
2023-01-15T06:55:38.217Z,7.30
2023-01-15T07:00:48.550Z,7.30
2023-01-15T07:05:58.677Z,7.30
2023-01-15T07:11:15.674Z,7.30
2023-01-15T07:16:33.607Z,7.30
2023-01-15T07:21:39.849Z,7.40
2023-01-15T07:26:46.534Z,7.40
2023-01-15T07:31:54.629Z,7.40
2023-01-15T07:37:02.892Z,7.50
2023-01-15T07:42:28.364Z,7.50
2023-01-15T07:47:54.685Z,7.50
2023-01-15T07:53:01.957Z,7.50
2023-01-15T07:58:08.673Z,7.50
2023-01-15T08:03:21.869Z,7.60
2023-01-15T08:08:37.237Z,7.60
2023-01-15T08:14:02.491Z,7.70
2023-01-15T08:19:10.606Z,7.70
2023-01-15T08:24:21.778Z,7.70
2023-01-15T08:29:33.029Z,7.80
2023-01-15T08:34:44.323Z,7.80
2023-01-15T08:39:54.728Z,7.90
2023-01-15T08:45:22.425Z,7.90
2023-01-15T08:56:16.246Z,8.00
2023-01-15T09:01:25.526Z,8.10
2023-01-15T09:06:54.230Z,8.20
2023-01-15T09:12:35.880Z,8.30
2023-01-15T09:29:44.235Z,8.30
2023-01-15T09:41:00.950Z,8.40
2023-01-15T09:46:19.143Z,8.40
2023-01-15T09:51:48.025Z,8.40
2023-01-15T09:57:02.991Z,8.50
2023-01-15T10:02:22.051Z,8.50
2023-01-15T10:07:31.652Z,8.50
2023-01-15T10:12:55.628Z,8.50
2023-01-15T10:18:04.162Z,8.50
2023-01-15T10:23:43.952Z,8.50
2023-01-15T10:29:18.077Z,8.60
2023-01-15T10:35:00.884Z,8.60
2023-01-15T10:40:36.006Z,8.60
2023-01-15T10:45:54.942Z,8.40
2023-01-15T10:51:11.013Z,7.80
2023-01-15T10:56:36.533Z,7.20
2023-01-15T11:01:52.763Z,6.90
2023-01-15T11:12:51.479Z,6.60
2023-01-15T11:18:19.692Z,6.60
2023-01-15T11:23:34.568Z,6.50
2023-01-15T11:28:43.954Z,6.50
2023-01-15T11:34:01.943Z,6.40
2023-01-15T11:39:08.142Z,6.40
2023-01-15T11:44:32.401Z,6.40
2023-01-15T11:49:57.671Z,6.50
2023-01-15T11:55:04.222Z,6.50
2023-01-15T12:00:14.796Z,6.50
2023-01-15T12:05:28.414Z,6.40
2023-01-15T12:11:25.155Z,6.40
2023-01-15T12:16:19.558Z,6.40
2023-01-15T12:21:36.918Z,6.40
2023-01-15T12:26:59.269Z,6.40
2023-01-15T12:32:15.110Z,6.40
2023-01-15T12:37:41.712Z,6.40
2023-01-15T12:43:07.616Z,6.30
2023-01-15T12:48:35.010Z,6.30
2023-01-15T12:53:54.680Z,6.20
2023-01-15T12:59:02.892Z,6.20
2023-01-15T13:04:25.999Z,6.10
2023-01-15T13:09:48.357Z,6.10
2023-01-15T13:15:00.186Z,6.10
2023-01-15T13:20:32.259Z,6.00
2023-01-15T13:25:45.567Z,5.90
2023-01-15T13:31:19.235Z,5.90
2023-01-15T13:36:52.007Z,5.90
2023-01-15T13:42:21.331Z,5.90
2023-01-15T13:47:38.049Z,5.90
2023-01-15T13:52:47.527Z,5.90
2023-01-15T13:57:52.901Z,5.90
2023-01-15T14:03:01.552Z,5.80
2023-01-15T14:08:10.803Z,5.80
2023-01-15T14:13:49.597Z,5.80
2023-01-15T14:19:24.417Z,5.70
2023-01-15T14:24:56.265Z,5.60
2023-01-15T14:30:27.580Z,5.60
2023-01-15T14:35:45.366Z,5.60
2023-01-15T14:41:00.575Z,5.50
2023-01-15T14:46:20.427Z,5.40
2023-01-15T14:51:54.188Z,5.40
2023-01-15T14:57:02.087Z,5.30
2023-01-15T15:02:24.060Z,5.30
2023-01-15T15:07:41.880Z,5.30
2023-01-15T15:13:21.730Z,5.30
2023-01-15T15:18:47.179Z,5.30
2023-01-15T15:24:13.716Z,5.30
2023-01-15T15:29:25.055Z,5.30
2023-01-15T15:34:52.311Z,5.30
2023-01-15T15:40:19.419Z,5.20
2023-01-15T15:45:48.931Z,5.20
2023-01-15T15:51:02.509Z,5.20
2023-01-15T15:56:10.365Z,5.10
2023-01-15T16:01:20.411Z,5.10
2023-01-15T16:06:36.250Z,5.10
2023-01-15T16:11:52.363Z,5.10
2023-01-15T16:17:10.509Z,5.10
2023-01-15T16:22:25.664Z,5.00
2023-01-15T16:27:39.207Z,5.00
2023-01-15T16:33:05.780Z,5.00
2023-01-15T16:38:19.173Z,5.00
2023-01-15T16:43:27.780Z,5.00
2023-01-15T16:48:40.883Z,5.00
2023-01-15T16:54:08.858Z,5.00
2023-01-15T16:59:20.578Z,5.00
2023-01-15T17:04:48.335Z,5.00
2023-01-15T17:10:32.378Z,5.00
2023-01-15T17:15:49.095Z,4.90
2023-01-15T17:20:58.310Z,4.90
2023-01-15T17:31:39.285Z,4.90
2023-01-15T17:36:48.015Z,4.90
2023-01-15T17:41:54.849Z,4.90
2023-01-15T17:47:00.058Z,5.00
2023-01-15T17:52:09.395Z,4.90
2023-01-15T17:57:33.923Z,4.90
2023-01-15T18:02:59.532Z,4.90
2023-01-15T18:08:12.669Z,4.90
2023-01-15T18:13:18.039Z,4.80
2023-01-15T18:18:23.475Z,4.90
2023-01-15T18:23:34.643Z,4.80
2023-01-15T18:28:42.432Z,4.80
2023-01-15T18:33:51.027Z,4.90
2023-01-15T18:45:26.518Z,5.00
2023-01-15T18:50:43.831Z,4.90
2023-01-15T18:55:49.703Z,4.90
2023-01-15T19:00:55.821Z,4.90
2023-01-15T19:06:12.589Z,4.90
2023-01-15T19:11:17.982Z,4.90
2023-01-15T19:16:41.267Z,4.80
2023-01-15T19:21:47.833Z,4.80
2023-01-15T19:26:55.287Z,4.80
2023-01-15T19:32:01.109Z,4.80
2023-01-15T19:37:06.590Z,4.80
2023-01-15T19:42:34.021Z,4.70
2023-01-15T19:47:59.646Z,4.70
2023-01-15T19:53:41.561Z,4.80
2023-01-15T19:58:48.546Z,4.70
2023-01-15T20:03:54.176Z,4.70
2023-01-15T20:09:00.593Z,4.70
2023-01-15T20:14:14.928Z,4.70
2023-01-15T20:19:29.452Z,4.60
2023-01-15T20:24:35.201Z,4.70
2023-01-15T20:29:44.120Z,4.60
2023-01-15T20:34:50.185Z,4.60
2023-01-15T20:40:02.172Z,4.60
2023-01-15T20:45:15.186Z,4.60
2023-01-15T20:50:28.591Z,4.60
2023-01-15T20:55:56.939Z,4.80
2023-01-15T21:00:59.953Z,4.70
2023-01-15T21:06:23.577Z,4.70
2023-01-15T21:11:38.368Z,4.70
2023-01-15T21:16:45.417Z,4.80
2023-01-15T21:21:52.154Z,4.70
2023-01-15T21:27:06.734Z,4.70
2023-01-15T21:37:44.059Z,4.60
2023-01-15T21:43:13.300Z,4.70
2023-01-15T21:48:42.969Z,4.60
2023-01-15T21:53:59.108Z,4.50
2023-01-15T21:59:12.044Z,4.60
2023-01-15T22:04:39.260Z,4.50
2023-01-15T22:09:47.480Z,4.40
2023-01-15T22:15:02.719Z,4.40
2023-01-15T22:20:32.186Z,4.50
2023-01-15T22:25:49.289Z,4.60
2023-01-15T22:31:00.662Z,4.50
2023-01-15T22:36:20.425Z,4.50
2023-01-15T22:42:08.869Z,4.50
2023-01-15T22:47:19.723Z,4.40
2023-01-15T22:52:31.520Z,4.40
2023-01-15T22:57:46.633Z,4.40
2023-01-15T23:08:37.675Z,4.50
2023-01-15T23:13:45.629Z,4.40
2023-01-15T23:24:35.615Z,4.40
2023-01-15T23:29:59.614Z,4.40
2023-01-15T23:35:07.364Z,4.40
2023-01-15T23:40:16.465Z,4.40
2023-01-15T23:45:44.041Z,4.40
2023-01-15T23:50:51.984Z,4.50
2023-01-15T23:56:07.260Z,4.50
